sensor_id;sensor_type;location;lat;lon;timestamp;pressure;altitude;pressure_sealevel;temperature;humidity
14800;BME280;7491;57.750;11.970;2023-05-14T00:00:13;76224.81;;;-142.11;88.59
14800;BME280;7491;57.750;11.970;2023-05-14T00:02:40;76218.72;;;-142.11;88.79
14800;BME280;7491;57.750;11.970;2023-05-14T00:05:08;76212.59;;;-142.11;88.27
14800;BME280;7491;57.750;11.970;2023-05-14T00:07:35;76224.81;;;-142.11;88.73
14800;BME280;7491;57.750;11.970;2023-05-14T00:10:02;76224.81;;;-142.11;88.85
14800;BME280;7491;57.750;11.970;2023-05-14T00:12:29;76220.75;;;-142.11;88.92
14800;BME280;7491;57.750;11.970;2023-05-14T00:14:57;76218.72;;;-142.11;87.97
14800;BME280;7491;57.750;11.970;2023-05-14T00:17:24;76220.75;;;-142.11;87.80
14800;BME280;7491;57.750;11.970;2023-05-14T00:19:50;76214.63;;;-142.11;87.33
14800;BME280;7491;57.750;11.970;2023-05-14T00:22:17;76206.47;;;-142.11;88.14
14800;BME280;7491;57.750;11.970;2023-05-14T00:24:44;76220.75;;;-142.11;88.27
14800;BME280;7491;57.750;11.970;2023-05-14T00:27:11;76222.78;;;-142.11;87.18
14800;BME280;7491;57.750;11.970;2023-05-14T00:29:42;76220.75;;;-142.11;87.55
14800;BME280;7491;57.750;11.970;2023-05-14T00:32:11;76212.59;;;-142.11;88.19
14800;BME280;7491;57.750;11.970;2023-05-14T00:34:38;76224.81;;;-142.11;88.54
14800;BME280;7491;57.750;11.970;2023-05-14T00:37:04;76239.09;;;-142.11;87.67
14800;BME280;7491;57.750;11.970;2023-05-14T00:39:31;76232.97;;;-142.11;87.75
14800;BME280;7491;57.750;11.970;2023-05-14T00:42:01;76220.75;;;-142.11;87.24
14800;BME280;7491;57.750;11.970;2023-05-14T00:44:28;76226.84;;;-142.11;87.32
14800;BME280;7491;57.750;11.970;2023-05-14T00:46:54;76235.00;;;-142.11;87.47
14800;BME280;7491;57.750;11.970;2023-05-14T00:49:26;76226.84;;;-142.11;88.18
14800;BME280;7491;57.750;11.970;2023-05-14T00:51:53;76224.81;;;-142.11;87.37
14800;BME280;7491;57.750;11.970;2023-05-14T00:54:20;76226.84;;;-142.11;87.60
14800;BME280;7491;57.750;11.970;2023-05-14T00:56:49;76235.00;;;-142.11;86.99
14800;BME280;7491;57.750;11.970;2023-05-14T00:59:22;76232.97;;;-142.11;87.35
14800;BME280;7491;57.750;11.970;2023-05-14T01:01:52;76226.84;;;-142.11;87.02
14800;BME280;7491;57.750;11.970;2023-05-14T01:04:19;76222.78;;;-142.11;87.60
14800;BME280;7491;57.750;11.970;2023-05-14T01:06:54;76226.84;;;-142.11;88.04
14800;BME280;7491;57.750;11.970;2023-05-14T01:09:33;76222.78;;;-142.11;88.33
14800;BME280;7491;57.750;11.970;2023-05-14T01:12:07;76228.91;;;-142.11;89.96
14800;BME280;7491;57.750;11.970;2023-05-14T01:14:44;76228.91;;;-142.11;89.09
14800;BME280;7491;57.750;11.970;2023-05-14T01:17:15;76249.28;;;-142.11;88.92
14800;BME280;7491;57.750;11.970;2023-05-14T01:22:49;76245.22;;;-142.11;89.82
14800;BME280;7491;57.750;11.970;2023-05-14T01:25:15;76255.41;;;-142.11;89.79
14800;BME280;7491;57.750;11.970;2023-05-14T01:27:52;76253.38;;;-142.11;90.53
14800;BME280;7491;57.750;11.970;2023-05-14T01:30:33;76249.28;;;-142.11;90.47
14800;BME280;7491;57.750;11.970;2023-05-14T01:33:02;76253.38;;;-142.11;90.59
14800;BME280;7491;57.750;11.970;2023-05-14T01:35:32;76247.25;;;-142.11;89.71
14800;BME280;7491;57.750;11.970;2023-05-14T01:38:02;76251.31;;;-142.11;88.54
14800;BME280;7491;57.750;11.970;2023-05-14T01:40:30;76255.41;;;-142.11;88.98
14800;BME280;7491;57.750;11.970;2023-05-14T01:43:02;76241.13;;;-142.11;88.43
14800;BME280;7491;57.750;11.970;2023-05-14T01:45:37;76232.97;;;-142.11;88.67
14800;BME280;7491;57.750;11.970;2023-05-14T01:48:04;76237.06;;;-142.11;88.20
14800;BME280;7491;57.750;11.970;2023-05-14T01:50:31;76239.09;;;-142.11;89.02
14800;BME280;7491;57.750;11.970;2023-05-14T01:52:59;76237.06;;;-142.11;90.15
14800;BME280;7491;57.750;11.970;2023-05-14T01:55:26;76239.09;;;-142.11;89.40
14800;BME280;7491;57.750;11.970;2023-05-14T01:57:53;76243.16;;;-142.11;89.03
14800;BME280;7491;57.750;11.970;2023-05-14T02:00:22;76239.09;;;-142.11;88.75
14800;BME280;7491;57.750;11.970;2023-05-14T02:02:50;76239.09;;;-142.11;88.66
14800;BME280;7491;57.750;11.970;2023-05-14T02:05:17;76237.06;;;-142.11;88.57
14800;BME280;7491;57.750;11.970;2023-05-14T02:07:44;76243.16;;;-142.11;88.77
14800;BME280;7491;57.750;11.970;2023-05-14T02:10:12;76239.09;;;-142.11;88.97
14800;BME280;7491;57.750;11.970;2023-05-14T02:12:39;76243.16;;;-142.11;88.84
14800;BME280;7491;57.750;11.970;2023-05-14T02:15:07;76243.16;;;-142.11;89.86
14800;BME280;7491;57.750;11.970;2023-05-14T02:17:35;76243.16;;;-142.11;89.17
14800;BME280;7491;57.750;11.970;2023-05-14T02:20:02;76241.13;;;-142.11;88.79
14800;BME280;7491;57.750;11.970;2023-05-14T02:22:29;76241.13;;;-142.11;88.69
14800;BME280;7491;57.750;11.970;2023-05-14T02:24:56;76237.06;;;-142.11;88.38
14800;BME280;7491;57.750;11.970;2023-05-14T02:27:25;76245.22;;;-142.11;88.53
14800;BME280;7491;57.750;11.970;2023-05-14T02:29:52;76247.25;;;-142.11;88.68
14800;BME280;7491;57.750;11.970;2023-05-14T02:32:18;76253.38;;;-142.11;88.36
14800;BME280;7491;57.750;11.970;2023-05-14T02:34:45;76247.25;;;-142.11;87.75
14800;BME280;7491;57.750;11.970;2023-05-14T02:37:12;76241.13;;;-142.11;87.07
14800;BME280;7491;57.750;11.970;2023-05-14T02:39:39;76239.09;;;-142.11;87.58
14800;BME280;7491;57.750;11.970;2023-05-14T02:42:06;76245.22;;;-142.11;87.67
14800;BME280;7491;57.750;11.970;2023-05-14T02:44:34;76241.13;;;-142.11;87.41
14800;BME280;7491;57.750;11.970;2023-05-14T02:47:01;76247.25;;;-142.11;87.49
14800;BME280;7491;57.750;11.970;2023-05-14T02:49:28;76247.25;;;-142.11;87.71
14800;BME280;7491;57.750;11.970;2023-05-14T02:51:54;76271.72;;;-142.11;88.16
14800;BME280;7491;57.750;11.970;2023-05-14T02:54:22;76255.41;;;-142.11;89.75
14800;BME280;7491;57.750;11.970;2023-05-14T02:56:48;76259.47;;;-142.11;88.87
14800;BME280;7491;57.750;11.970;2023-05-14T02:59:15;76267.63;;;-142.11;88.60
14800;BME280;7491;57.750;11.970;2023-05-14T03:01:43;76261.50;;;-142.11;89.58
14800;BME280;7491;57.750;11.970;2023-05-14T03:04:10;76265.59;;;-142.11;88.85
14800;BME280;7491;57.750;11.970;2023-05-14T03:06:37;76259.47;;;-142.11;89.33
14800;BME280;7491;57.750;11.970;2023-05-14T03:09:04;76257.44;;;-142.11;90.39
14800;BME280;7491;57.750;11.970;2023-05-14T03:11:30;76261.50;;;-142.11;87.77
14800;BME280;7491;57.750;11.970;2023-05-14T03:13:57;76269.66;;;-142.11;87.40
14800;BME280;7491;57.750;11.970;2023-05-14T03:16:24;76259.47;;;-142.11;87.76
14800;BME280;7491;57.750;11.970;2023-05-14T03:18:52;76253.38;;;-142.11;89.68
14800;BME280;7491;57.750;11.970;2023-05-14T03:21:19;76257.44;;;-142.11;89.71
14800;BME280;7491;57.750;11.970;2023-05-14T03:23:45;76251.31;;;-142.11;89.53
14800;BME280;7491;57.750;11.970;2023-05-14T03:26:12;76255.41;;;-142.11;89.63
14800;BME280;7491;57.750;11.970;2023-05-14T03:28:39;76253.38;;;-142.11;89.16
14800;BME280;7491;57.750;11.970;2023-05-14T03:31:06;76251.31;;;-142.11;88.19
14800;BME280;7491;57.750;11.970;2023-05-14T03:33:34;76239.09;;;-142.11;87.49
14800;BME280;7491;57.750;11.970;2023-05-14T03:36:02;76220.75;;;-142.11;87.71
14800;BME280;7491;57.750;11.970;2023-05-14T03:38:29;76224.81;;;-142.11;87.86
14800;BME280;7491;57.750;11.970;2023-05-14T03:40:56;76210.56;;;-142.11;87.66
14800;BME280;7491;57.750;11.970;2023-05-14T03:43:23;76210.56;;;-142.11;87.28
14800;BME280;7491;57.750;11.970;2023-05-14T03:45:50;76200.34;;;-142.11;86.86
14800;BME280;7491;57.750;11.970;2023-05-14T03:48:17;76190.16;;;-142.11;86.42
14800;BME280;7491;57.750;11.970;2023-05-14T03:50:44;76175.91;;;-142.11;86.58
14800;BME280;7491;57.750;11.970;2023-05-14T03:53:12;76167.75;;;-142.11;86.68
14800;BME280;7491;57.750;11.970;2023-05-14T03:55:39;76155.50;;;-142.11;86.75
14800;BME280;7491;57.750;11.970;2023-05-14T03:58:06;76157.56;;;-142.11;86.91
14800;BME280;7491;57.750;11.970;2023-05-14T04:00:38;76157.56;;;-142.11;87.83
14800;BME280;7491;57.750;11.970;2023-05-14T04:03:05;76173.84;;;-142.11;87.95
14800;BME280;7491;57.750;11.970;2023-05-14T04:05:32;76165.72;;;-142.11;88.50
14800;BME280;7491;57.750;11.970;2023-05-14T04:07:59;76153.47;;;-142.11;88.19
14800;BME280;7491;57.750;11.970;2023-05-14T04:10:30;76153.47;;;-142.11;89.09
14800;BME280;7491;57.750;11.970;2023-05-14T04:12:57;76151.44;;;-142.11;89.31
14800;BME280;7491;57.750;11.970;2023-05-14T04:15:23;76155.50;;;-142.11;88.82
14800;BME280;7491;57.750;11.970;2023-05-14T04:17:51;76151.44;;;-142.11;88.83
14800;BME280;7491;57.750;11.970;2023-05-14T04:20:18;76137.16;;;-142.11;87.13
14800;BME280;7491;57.750;11.970;2023-05-14T04:22:44;76112.72;;;-142.11;87.30
14800;BME280;7491;57.750;11.970;2023-05-14T04:25:11;76090.28;;;-142.11;86.29
14800;BME280;7491;57.750;11.970;2023-05-14T04:27:39;76080.09;;;-142.11;84.80
14800;BME280;7491;57.750;11.970;2023-05-14T04:30:07;76065.81;;;-142.11;83.80
14800;BME280;7491;57.750;11.970;2023-05-14T04:32:34;76057.66;;;-142.11;82.89
14800;BME280;7491;57.750;11.970;2023-05-14T04:35:02;76039.31;;;-142.11;82.24
14800;BME280;7491;57.750;11.970;2023-05-14T04:37:29;76023.00;;;-142.11;81.58
14800;BME280;7491;57.750;11.970;2023-05-14T04:39:57;76006.72;;;-142.11;81.88
14800;BME280;7491;57.750;11.970;2023-05-14T04:42:24;75988.34;;;-142.11;81.32
14800;BME280;7491;57.750;11.970;2023-05-14T04:44:52;75980.22;;;-142.11;80.77
14800;BME280;7491;57.750;11.970;2023-05-14T04:47:18;75974.09;;;-142.11;79.62
14800;BME280;7491;57.750;11.970;2023-05-14T04:49:46;75972.06;;;-142.11;79.94
14800;BME280;7491;57.750;11.970;2023-05-14T04:52:13;75953.72;;;-142.11;79.99
14800;BME280;7491;57.750;11.970;2023-05-14T04:54:40;75939.44;;;-142.11;81.56
14800;BME280;7491;57.750;11.970;2023-05-14T04:57:07;75947.59;;;-142.11;79.42
14800;BME280;7491;57.750;11.970;2023-05-14T04:59:33;75927.22;;;-142.11;79.17
14800;BME280;7491;57.750;11.970;2023-05-14T05:02:02;75904.78;;;-142.11;78.17
14800;BME280;7491;57.750;11.970;2023-05-14T05:04:29;75904.78;;;-142.11;78.50
14800;BME280;7491;57.750;11.970;2023-05-14T05:06:55;75876.25;;;-142.11;79.48
14800;BME280;7491;57.750;11.970;2023-05-14T05:09:22;75866.06;;;-142.11;78.22
14800;BME280;7491;57.750;11.970;2023-05-14T05:11:49;75861.97;;;-142.11;78.11
14800;BME280;7491;57.750;11.970;2023-05-14T05:14:16;75847.72;;;-142.11;78.30
14800;BME280;7491;57.750;11.970;2023-05-14T05:16:42;75839.56;;;-142.11;78.59
14800;BME280;7491;57.750;11.970;2023-05-14T05:19:11;75839.56;;;-142.11;77.86
14800;BME280;7491;57.750;11.970;2023-05-14T05:21:37;75829.38;;;-142.11;76.98
14800;BME280;7491;57.750;11.970;2023-05-14T05:24:05;75833.44;;;-142.11;75.31
14800;BME280;7491;57.750;11.970;2023-05-14T05:26:32;75819.19;;;-142.11;77.02
14800;BME280;7491;57.750;11.970;2023-05-14T05:29:01;75796.75;;;-142.11;75.95
14800;BME280;7491;57.750;11.970;2023-05-14T05:31:27;75788.59;;;-142.11;75.26
14800;BME280;7491;57.750;11.970;2023-05-14T05:33:54;75776.38;;;-142.11;74.38
14800;BME280;7491;57.750;11.970;2023-05-14T05:36:23;75760.06;;;-142.11;74.89
14800;BME280;7491;57.750;11.970;2023-05-14T05:38:50;75756.00;;;-142.11;74.19
14800;BME280;7491;57.750;11.970;2023-05-14T05:41:17;75751.91;;;-142.11;73.81
14800;BME280;7491;57.750;11.970;2023-05-14T05:43:43;75735.59;;;-142.11;74.17
14800;BME280;7491;57.750;11.970;2023-05-14T05:46:10;75719.31;;;-142.11;74.26
14800;BME280;7491;57.750;11.970;2023-05-14T05:48:37;75700.97;;;-142.11;74.93
14800;BME280;7491;57.750;11.970;2023-05-14T05:51:04;75688.72;;;-142.11;74.73
14800;BME280;7491;57.750;11.970;2023-05-14T05:53:32;75674.47;;;-142.11;73.50
14800;BME280;7491;57.750;11.970;2023-05-14T05:55:59;75670.38;;;-142.11;71.63
14800;BME280;7491;57.750;11.970;2023-05-14T05:58:26;75672.44;;;-142.11;72.35
14800;BME280;7491;57.750;11.970;2023-05-14T06:00:53;75668.34;;;-142.11;72.79
14800;BME280;7491;57.750;11.970;2023-05-14T06:03:22;75678.53;;;-142.11;72.98
14800;BME280;7491;57.750;11.970;2023-05-14T06:05:48;75658.16;;;-142.11;72.70
14800;BME280;7491;57.750;11.970;2023-05-14T06:08:16;75635.72;;;-142.11;71.61
14800;BME280;7491;57.750;11.970;2023-05-14T06:10:45;75609.25;;;-142.11;72.09
14800;BME280;7491;57.750;11.970;2023-05-14T06:13:11;75599.03;;;-142.11;70.75
14800;BME280;7491;57.750;11.970;2023-05-14T06:15:38;75582.75;;;-142.11;71.04
14800;BME280;7491;57.750;11.970;2023-05-14T06:18:05;75568.47;;;-142.11;70.87
14800;BME280;7491;57.750;11.970;2023-05-14T06:20:31;75552.16;;;-142.11;71.03
14800;BME280;7491;57.750;11.970;2023-05-14T06:22:58;75541.97;;;-142.11;70.16
14800;BME280;7491;57.750;11.970;2023-05-14T06:25:25;75529.75;;;-142.11;69.67
14800;BME280;7491;57.750;11.970;2023-05-14T06:27:53;75507.34;;;-142.11;69.91
14800;BME280;7491;57.750;11.970;2023-05-14T06:30:20;75507.34;;;-142.11;69.61
14800;BME280;7491;57.750;11.970;2023-05-14T06:32:47;75497.13;;;-142.11;70.03
14800;BME280;7491;57.750;11.970;2023-05-14T06:35:13;75470.66;;;-142.11;69.63
14800;BME280;7491;57.750;11.970;2023-05-14T06:37:40;75480.84;;;-142.11;69.69
14800;BME280;7491;57.750;11.970;2023-05-14T06:40:07;75495.09;;;-142.11;69.43
14800;BME280;7491;57.750;11.970;2023-05-14T06:42:35;75497.13;;;-142.11;70.17
14800;BME280;7491;57.750;11.970;2023-05-14T06:45:03;75521.59;;;-142.11;69.95
14800;BME280;7491;57.750;11.970;2023-05-14T06:47:30;75533.81;;;-142.11;70.40
14800;BME280;7491;57.750;11.970;2023-05-14T06:49:57;75539.94;;;-142.11;70.83
14800;BME280;7491;57.750;11.970;2023-05-14T06:52:26;75533.81;;;-142.11;70.51
14800;BME280;7491;57.750;11.970;2023-05-14T06:54:52;75529.75;;;-142.11;70.49
14800;BME280;7491;57.750;11.970;2023-05-14T06:57:19;75525.69;;;-142.11;70.51
14800;BME280;7491;57.750;11.970;2023-05-14T06:59:46;75533.81;;;-142.11;70.74
14800;BME280;7491;57.750;11.970;2023-05-14T07:02:14;75515.47;;;-142.11;70.72
14800;BME280;7491;57.750;11.970;2023-05-14T07:04:41;75507.34;;;-142.11;71.26
14800;BME280;7491;57.750;11.970;2023-05-14T07:07:08;75486.94;;;-142.11;70.69
14800;BME280;7491;57.750;11.970;2023-05-14T07:09:39;75484.91;;;-142.11;70.83
14800;BME280;7491;57.750;11.970;2023-05-14T07:12:07;75476.75;;;-142.11;70.82
14800;BME280;7491;57.750;11.970;2023-05-14T07:14:33;75484.91;;;-142.11;69.80
14800;BME280;7491;57.750;11.970;2023-05-14T07:17:00;75495.09;;;-142.11;70.46
14800;BME280;7491;57.750;11.970;2023-05-14T07:19:28;75491.03;;;-142.11;70.71
14800;BME280;7491;57.750;11.970;2023-05-14T07:21:55;75484.91;;;-142.11;70.46
14800;BME280;7491;57.750;11.970;2023-05-14T07:24:22;75474.72;;;-142.11;70.04
14800;BME280;7491;57.750;11.970;2023-05-14T07:26:49;75484.91;;;-142.11;70.07
14800;BME280;7491;57.750;11.970;2023-05-14T07:29:16;75480.84;;;-142.11;71.09
14800;BME280;7491;57.750;11.970;2023-05-14T07:31:43;75491.03;;;-142.11;70.71
14800;BME280;7491;57.750;11.970;2023-05-14T07:34:09;75497.13;;;-142.11;71.30
14800;BME280;7491;57.750;11.970;2023-05-14T07:36:38;75505.28;;;-142.11;71.72
14800;BME280;7491;57.750;11.970;2023-05-14T07:39:05;75499.19;;;-142.11;72.45
14800;BME280;7491;57.750;11.970;2023-05-14T07:41:33;75491.03;;;-142.11;71.48
14800;BME280;7491;57.750;11.970;2023-05-14T07:43:59;75462.50;;;-142.11;72.55
14800;BME280;7491;57.750;11.970;2023-05-14T07:46:26;75421.72;;;-142.11;70.91
14800;BME280;7491;57.750;11.970;2023-05-14T07:48:53;75429.88;;;-142.11;72.55
14800;BME280;7491;57.750;11.970;2023-05-14T07:51:20;75462.50;;;-142.11;70.88
14800;BME280;7491;57.750;11.970;2023-05-14T07:53:48;75456.38;;;-142.11;71.56
14800;BME280;7491;57.750;11.970;2023-05-14T07:56:15;75460.44;;;-142.11;71.50
14800;BME280;7491;57.750;11.970;2023-05-14T07:58:42;75468.59;;;-142.11;72.09
14800;BME280;7491;57.750;11.970;2023-05-14T08:01:08;75480.84;;;-142.11;71.01
14800;BME280;7491;57.750;11.970;2023-05-14T08:03:37;75454.34;;;-142.11;71.72
14800;BME280;7491;57.750;11.970;2023-05-14T08:06:04;75438.03;;;-142.11;72.01
14800;BME280;7491;57.750;11.970;2023-05-14T08:08:31;75427.84;;;-142.11;72.63
14800;BME280;7491;57.750;11.970;2023-05-14T08:10:59;75438.03;;;-142.11;71.65
14800;BME280;7491;57.750;11.970;2023-05-14T08:13:26;75456.38;;;-142.11;71.15
14800;BME280;7491;57.750;11.970;2023-05-14T08:15:52;75460.44;;;-142.11;71.91
14800;BME280;7491;57.750;11.970;2023-05-14T08:18:19;75458.41;;;-142.11;71.82
14800;BME280;7491;57.750;11.970;2023-05-14T08:20:46;75442.13;;;-142.11;72.51
14800;BME280;7491;57.750;11.970;2023-05-14T08:23:13;75438.03;;;-142.11;72.28
14800;BME280;7491;57.750;11.970;2023-05-14T08:25:40;75438.03;;;-142.11;72.01
14800;BME280;7491;57.750;11.970;2023-05-14T08:28:08;75429.88;;;-142.11;71.83
14800;BME280;7491;57.750;11.970;2023-05-14T08:30:35;75403.38;;;-142.11;72.70
14800;BME280;7491;57.750;11.970;2023-05-14T08:33:02;75383.00;;;-142.11;71.71
14800;BME280;7491;57.750;11.970;2023-05-14T08:35:29;75348.38;;;-142.11;72.72
14800;BME280;7491;57.750;11.970;2023-05-14T08:37:55;75338.16;;;-142.11;71.07
14800;BME280;7491;57.750;11.970;2023-05-14T08:40:22;75303.53;;;-142.11;71.75
14800;BME280;7491;57.750;11.970;2023-05-14T08:42:52;75264.81;;;-142.11;71.25
14800;BME280;7491;57.750;11.970;2023-05-14T08:45:28;75254.63;;;-142.11;70.41
14800;BME280;7491;57.750;11.970;2023-05-14T08:47:59;75213.84;;;-142.11;72.76
14800;BME280;7491;57.750;11.970;2023-05-14T08:50:26;75173.09;;;-142.11;70.48
14800;BME280;7491;57.750;11.970;2023-05-14T08:52:54;75183.28;;;-142.11;69.94
14800;BME280;7491;57.750;11.970;2023-05-14T08:55:21;75160.88;;;-142.11;70.57
14800;BME280;7491;57.750;11.970;2023-05-14T08:57:48;75154.75;;;-142.11;71.36
14800;BME280;7491;57.750;11.970;2023-05-14T09:00:14;75124.19;;;-142.11;70.86
14800;BME280;7491;57.750;11.970;2023-05-14T09:02:45;75124.19;;;-142.11;69.96
14800;BME280;7491;57.750;11.970;2023-05-14T09:05:13;75146.59;;;-142.11;69.47
14800;BME280;7491;57.750;11.970;2023-05-14T09:07:40;75156.78;;;-142.11;69.69
14800;BME280;7491;57.750;11.970;2023-05-14T09:10:08;75140.50;;;-142.11;69.27
14800;BME280;7491;57.750;11.970;2023-05-14T09:12:35;75132.34;;;-142.11;70.43
14800;BME280;7491;57.750;11.970;2023-05-14T09:15:06;75122.16;;;-142.11;69.23
14800;BME280;7491;57.750;11.970;2023-05-14T09:17:33;75156.78;;;-142.11;68.71
14800;BME280;7491;57.750;11.970;2023-05-14T09:20:01;75181.25;;;-142.11;69.11
14800;BME280;7491;57.750;11.970;2023-05-14T09:22:29;75177.16;;;-142.11;69.83
14800;BME280;7491;57.750;11.970;2023-05-14T09:25:01;75175.13;;;-142.11;69.04
14800;BME280;7491;57.750;11.970;2023-05-14T09:27:29;75162.91;;;-142.11;70.28
14800;BME280;7491;57.750;11.970;2023-05-14T09:30:04;75169.03;;;-142.11;69.40
14800;BME280;7491;57.750;11.970;2023-05-14T09:32:35;75146.59;;;-142.11;68.94
14800;BME280;7491;57.750;11.970;2023-05-14T09:35:13;75126.22;;;-142.11;70.02
14800;BME280;7491;57.750;11.970;2023-05-14T09:37:42;75107.88;;;-142.11;70.21
14800;BME280;7491;57.750;11.970;2023-05-14T09:40:13;75085.47;;;-142.11;69.85
14800;BME280;7491;57.750;11.970;2023-05-14T09:46:06;75071.19;;;-142.11;70.57
14800;BME280;7491;57.750;11.970;2023-05-14T09:48:36;75054.91;;;-142.11;71.03
14800;BME280;7491;57.750;11.970;2023-05-14T09:51:05;75063.06;;;-142.11;71.07
14800;BME280;7491;57.750;11.970;2023-05-14T09:53:32;75069.16;;;-142.11;70.95
14800;BME280;7491;57.750;11.970;2023-05-14T09:55:59;75067.13;;;-142.11;70.97
14800;BME280;7491;57.750;11.970;2023-05-14T09:58:27;75085.47;;;-142.11;70.77
14800;BME280;7491;57.750;11.970;2023-05-14T10:00:56;75077.31;;;-142.11;71.27
14800;BME280;7491;57.750;11.970;2023-05-14T10:03:25;75075.28;;;-142.11;72.30
14800;BME280;7491;57.750;11.970;2023-05-14T10:05:52;75058.97;;;-142.11;71.73
14800;BME280;7491;57.750;11.970;2023-05-14T10:08:24;75038.59;;;-142.11;71.91
14800;BME280;7491;57.750;11.970;2023-05-14T10:10:53;75034.53;;;-142.11;71.41
14800;BME280;7491;57.750;11.970;2023-05-14T10:13:29;74999.88;;;-142.11;70.95
14800;BME280;7491;57.750;11.970;2023-05-14T10:16:06;74991.72;;;-142.11;70.26
14800;BME280;7491;57.750;11.970;2023-05-14T10:18:38;74979.50;;;-142.11;70.21
14800;BME280;7491;57.750;11.970;2023-05-14T10:21:07;74971.34;;;-142.11;71.28
14800;BME280;7491;57.750;11.970;2023-05-14T10:23:36;74973.38;;;-142.11;71.51
14800;BME280;7491;57.750;11.970;2023-05-14T10:26:05;74942.81;;;-142.11;71.03
14800;BME280;7491;57.750;11.970;2023-05-14T10:28:32;74920.41;;;-142.11;70.72
14800;BME280;7491;57.750;11.970;2023-05-14T10:30:59;74916.31;;;-142.11;70.21
14800;BME280;7491;57.750;11.970;2023-05-14T10:33:28;74904.09;;;-142.11;69.22
14800;BME280;7491;57.750;11.970;2023-05-14T10:36:00;74908.19;;;-142.11;70.62
14800;BME280;7491;57.750;11.970;2023-05-14T10:38:28;74918.38;;;-142.11;69.18
14800;BME280;7491;57.750;11.970;2023-05-14T10:40:58;74930.59;;;-142.11;68.31
14800;BME280;7491;57.750;11.970;2023-05-14T10:43:26;74942.81;;;-142.11;69.60
14800;BME280;7491;57.750;11.970;2023-05-14T10:45:54;74953.00;;;-142.11;69.40
14800;BME280;7491;57.750;11.970;2023-05-14T10:48:21;74936.72;;;-142.11;69.37
14800;BME280;7491;57.750;11.970;2023-05-14T10:50:49;74912.25;;;-142.11;69.41
14800;BME280;7491;57.750;11.970;2023-05-14T10:53:16;74900.03;;;-142.11;69.82
14800;BME280;7491;57.750;11.970;2023-05-14T10:55:44;74889.84;;;-142.11;67.14
14800;BME280;7491;57.750;11.970;2023-05-14T10:58:13;74887.81;;;-142.11;68.62
14800;BME280;7491;57.750;11.970;2023-05-14T11:00:40;74869.47;;;-142.11;68.63
14800;BME280;7491;57.750;11.970;2023-05-14T11:03:07;74873.53;;;-142.11;65.06
14800;BME280;7491;57.750;11.970;2023-05-14T11:05:42;74902.06;;;-142.11;63.35
14800;BME280;7491;57.750;11.970;2023-05-14T11:08:10;74887.81;;;-142.11;63.83
14800;BME280;7491;57.750;11.970;2023-05-14T11:10:38;74867.44;;;-142.11;63.31
14800;BME280;7491;57.750;11.970;2023-05-14T11:13:05;74889.84;;;-142.11;63.04
14800;BME280;7491;57.750;11.970;2023-05-14T11:15:34;74914.28;;;-142.11;62.53
14800;BME280;7491;57.750;11.970;2023-05-14T11:18:04;74908.19;;;-142.11;63.19
14800;BME280;7491;57.750;11.970;2023-05-14T11:20:30;74893.91;;;-142.11;63.90
14800;BME280;7491;57.750;11.970;2023-05-14T11:22:57;74873.53;;;-142.11;64.23
14800;BME280;7491;57.750;11.970;2023-05-14T11:25:24;74834.81;;;-142.11;64.22
14800;BME280;7491;57.750;11.970;2023-05-14T11:27:51;74790.00;;;-142.11;63.90
14800;BME280;7491;57.750;11.970;2023-05-14T11:30:22;74747.19;;;-142.11;63.27
14800;BME280;7491;57.750;11.970;2023-05-14T11:32:51;74775.72;;;-142.11;62.63
14800;BME280;7491;57.750;11.970;2023-05-14T11:35:18;74777.75;;;-142.11;62.42
14800;BME280;7491;57.750;11.970;2023-05-14T11:37:49;74794.06;;;-142.11;62.02
14800;BME280;7491;57.750;11.970;2023-05-14T11:40:17;74775.72;;;-142.11;64.00
14800;BME280;7491;57.750;11.970;2023-05-14T11:42:43;74781.84;;;-142.11;63.59
14800;BME280;7491;57.750;11.970;2023-05-14T11:45:10;74773.69;;;-142.11;63.95
14800;BME280;7491;57.750;11.970;2023-05-14T11:47:37;74781.84;;;-142.11;62.23
14800;BME280;7491;57.750;11.970;2023-05-14T11:50:06;74787.94;;;-142.11;62.90
14800;BME280;7491;57.750;11.970;2023-05-14T11:52:36;74783.88;;;-142.11;63.41
14800;BME280;7491;57.750;11.970;2023-05-14T11:55:04;74783.88;;;-142.11;62.70
14800;BME280;7491;57.750;11.970;2023-05-14T11:57:31;74773.69;;;-142.11;64.07
14800;BME280;7491;57.750;11.970;2023-05-14T11:59:58;74732.94;;;-142.11;63.94
14800;BME280;7491;57.750;11.970;2023-05-14T12:02:26;74716.63;;;-142.11;62.57
14800;BME280;7491;57.750;11.970;2023-05-14T12:04:54;74716.63;;;-142.11;62.61
14800;BME280;7491;57.750;11.970;2023-05-14T12:07:22;74706.44;;;-142.11;61.98
14800;BME280;7491;57.750;11.970;2023-05-14T12:09:49;74684.03;;;-142.11;61.66
14800;BME280;7491;57.750;11.970;2023-05-14T12:12:17;74716.63;;;-142.11;62.05
14800;BME280;7491;57.750;11.970;2023-05-14T12:14:44;74704.41;;;-142.11;61.92
14800;BME280;7491;57.750;11.970;2023-05-14T12:17:13;74730.91;;;-142.11;62.35
14800;BME280;7491;57.750;11.970;2023-05-14T12:19:41;74769.63;;;-142.11;62.48
14800;BME280;7491;57.750;11.970;2023-05-14T12:22:09;74790.00;;;-142.11;62.39
14800;BME280;7491;57.750;11.970;2023-05-14T12:24:37;74804.25;;;-142.11;63.24
14800;BME280;7491;57.750;11.970;2023-05-14T12:27:05;74814.44;;;-142.11;63.89
14800;BME280;7491;57.750;11.970;2023-05-14T12:29:35;74826.66;;;-142.11;63.62
14800;BME280;7491;57.750;11.970;2023-05-14T12:32:07;74859.28;;;-142.11;64.12
14800;BME280;7491;57.750;11.970;2023-05-14T12:34:34;74891.88;;;-142.11;68.80
14800;BME280;7491;57.750;11.970;2023-05-14T12:37:01;74963.19;;;-142.11;78.97
14800;BME280;7491;57.750;11.970;2023-05-14T12:39:33;75048.78;;;-142.11;85.83
14800;BME280;7491;57.750;11.970;2023-05-14T12:42:01;75087.50;;;-142.11;87.41
14800;BME280;7491;57.750;11.970;2023-05-14T12:44:28;75130.31;;;-142.11;90.41
14800;BME280;7491;57.750;11.970;2023-05-14T12:46:55;75197.56;;;-142.11;88.59
14800;BME280;7491;57.750;11.970;2023-05-14T12:49:23;75217.94;;;-142.11;88.22